Time;durP1;ratioP1;P1;durP2;ratioP2;P2;SDS_P1;SDS_P2;PMS_P1;PMS_P2;Temp;Humidity;BMP_temperature;BMP_pressure;BME280_temperature;BME280_humidity;BME280_pressure;Samples;Min_cycle;Max_cycle;Signal;HPM_P1;HPM_P2
2024/04/20 00:00:52;;;;;;;5.60;3.50;;;;;;;7.64;69.42;98963.02;126724;1309;114772;-63
2024/04/20 00:04:28;;;;;;;;;;;;;;;;;;;;;
2024/04/20 00:08:07;;;;;;;;;;;;;;;;;;;;;
2024/04/20 00:11:52;;;;;;;3.40;2.70;;;;;;;7.59;69.59;98973.05;125773;1313;114948;-67
2024/04/20 00:20:14;;;;;;;;;;;;;;;;;;;;;
2024/04/20 00:24:08;;;;;;;;;;;;;;;;;;;;;
2024/04/20 00:28:04;;;;;;;3.90;2.70;;;;;;;7.56;69.38;98980.55;127855;1301;114988;-64
2024/04/20 00:31:35;;;;;;;2.70;1.90;;;;;;;7.51;69.66;98979.96;124689;1289;5438331;-63
2024/04/20 00:39:19;;;;;;;5.00;3.80;;;;;;;7.42;69.37;98987.23;128184;1298;114876;-65
2024/04/20 00:43:01;;;;;;;;;;;;;;;;;;;;;
2024/04/20 00:46:50;;;;;;;;;;;;;;;;;;;;;
2024/04/20 00:55:09;;;;;;;6.90;4.20;;;;;;;7.43;69.96;98993.00;126181;1295;114843;-64
2024/04/20 00:58:51;;;;;;;4.40;3.40;;;;;;;7.46;69.96;98993.20;125392;1324;114997;-65
2024/04/20 01:02:45;;;;;;;7.80;3.00;;;;;;;7.49;70.08;98994.27;126164;1297;129803;-66
2024/04/20 01:06:19;;;;;;;6.00;4.10;;;;;;;7.52;70.43;98994.28;126278;1295;114918;-65
2024/04/20 01:09:53;;;;;;;;;;;;;;;;;;;;;
2024/04/20 01:13:50;;;;;;;3.70;3.20;;;;;;;7.56;70.43;98994.73;125460;1320;114982;-66
2024/04/20 01:22:02;;;;;;;;;;;;;;;;;;;;;
2024/04/20 01:26:06;;;;;;;5.90;4.30;;;;;;;7.62;70.56;98996.16;127604;1275;127961;-66
2024/04/20 01:29:50;;;;;;;;;;;;;;;;;;;;;
2024/04/20 01:33:44;;;;;;;5.00;3.80;;;;;;;7.58;70.71;98997.98;127348;1304;114816;-66
2024/04/20 01:37:46;;;;;;;4.30;3.40;;;;;;;7.59;70.81;99002.59;123425;1308;114892;-65
2024/04/20 01:41:27;;;;;;;5.80;3.30;;;;;;;7.61;70.91;99004.59;125832;1301;114997;-65
2024/04/20 01:45:07;;;;;;;;;;;;;;;;;;;;;
2024/04/20 01:49:02;;;;;;;4.60;3.20;;;;;;;7.63;70.73;99012.33;125072;1310;130841;-65
2024/04/20 01:53:03;;;;;;;4.30;3.90;;;;;;;7.64;70.81;99015.25;124116;1317;114812;-65
2024/04/20 01:57:03;;;;;;;4.70;3.90;;;;;;;7.65;70.62;99017.31;124044;1332;114890;-62
2024/04/20 02:00:42;;;;;;;6.20;3.70;;;;;;;7.66;70.47;99019.05;123796;1311;115252;-62
2024/04/20 02:04:37;;;;;;;;;;;;;;;;;;;;;
2024/04/20 02:08:19;;;;;;;;;;;;;;;;;;;;;
2024/04/20 02:12:15;;;;;;;6.30;4.60;;;;;;;7.72;70.85;99030.27;124917;1320;116521;-63
2024/04/20 02:15:55;;;;;;;4.00;3.20;;;;;;;7.73;70.70;99034.08;124979;1326;114918;-66
2024/04/20 02:19:26;;;;;;;6.60;4.00;;;;;;;7.73;70.91;99039.94;126061;1316;115041;-63
2024/04/20 02:23:16;;;;;;;5.20;4.20;;;;;;;7.75;71.25;99039.64;126107;1318;114936;-62
2024/04/20 02:27:06;;;;;;;4.50;3.80;;;;;;;7.76;71.73;99041.57;126115;1296;129802;-62
2024/04/20 02:30:39;;;;;;;5.50;4.70;;;;;;;7.75;72.08;99041.25;126371;1290;114828;-63
2024/04/20 02:34:21;;;;;;;5.30;4.30;;;;;;;7.74;72.38;99043.96;125734;1317;114907;-64
2024/04/20 02:38:01;;;;;;;;;;;;;;;;;;;;;
2024/04/20 02:41:50;;;;;;;6.30;5.10;;;;;;;7.73;72.68;99050.96;125487;1305;114933;-64
2024/04/20 02:45:28;;;;;;;5.60;4.90;;;;;;;7.71;72.82;99053.94;124998;1307;129905;-65
2024/04/20 02:49:30;;;;;;;6.20;4.70;;;;;;;7.71;72.85;99056.63;125178;1307;114900;-64
2024/04/20 02:53:16;;;;;;;6.40;5.40;;;;;;;7.69;73.03;99054.95;124276;1314;114937;-64
2024/04/20 02:57:18;;;;;;;5.50;4.50;;;;;;;7.67;72.93;99058.30;124228;1316;114982;-64
2024/04/20 03:00:58;;;;;;;;;;;;;;;;;;;;;
2024/04/20 03:04:51;;;;;;;6.90;5.40;;;;;;;7.62;73.08;99059.07;123741;1323;129881;-64
2024/04/20 03:08:41;;;;;;;6.00;5.10;;;;;;;7.65;73.26;99062.45;125986;1295;636087;-63
2024/04/20 03:12:30;;;;;;;;;;;;;;;;;;;;;
2024/04/20 03:16:20;;;;;;;;;;;;;;;;;;;;;
2024/04/20 03:19:22;;;;;;;8.20;5.30;;;;;;;7.62;73.19;99075.13;128365;1296;114841;-62
2024/04/20 03:23:02;;;;;;;6.40;5.10;;;;;;;7.60;73.32;99078.90;125011;1271;5588580;-62
2024/04/20 03:26:07;;;;;;;5.40;4.40;;;;;;;7.61;73.56;99082.39;129066;1286;114944;-62
2024/04/20 03:29:10;;;;;;;6.30;4.60;;;;;;;7.60;73.57;99083.17;128979;1288;114958;-63
2024/04/20 03:32:21;;;;;;;6.10;5.30;;;;;;;7.61;73.50;99088.81;129141;1280;116561;-63
2024/04/20 03:35:48;;;;;;;6.40;5.20;;;;;;;7.61;73.65;99091.13;129085;1289;114742;-64
2024/04/20 03:39:29;;;;;;;6.10;4.90;;;;;;;7.59;74.01;99099.55;128741;1289;114814;-63
2024/04/20 03:43:15;;;;;;;5.30;4.80;;;;;;;7.58;74.04;99103.70;129092;1289;114835;-62
2024/04/20 03:47:05;;;;;;;6.60;5.80;;;;;;;7.58;74.23;99106.20;128988;1271;115615;-62
2024/04/20 03:50:29;;;;;;;6.60;5.30;;;;;;;7.57;74.46;99109.30;129281;1284;128805;-62
2024/04/20 03:54:08;;;;;;;;;;;;;;;;;;;;;
2024/04/20 04:01:39;;;;;;;;;;;;;;;;;;;;;
2024/04/20 04:05:28;;;;;;;;;;;;;;;;;;;;;
2024/04/20 04:09:17;;;;;;;7.10;6.00;;;;;;;7.53;75.29;99130.34;129233;1268;128405;-61
2024/04/20 04:13:17;;;;;;;5.80;5.10;;;;;;;7.52;75.22;99132.48;129024;1288;114899;-62
2024/04/20 04:16:45;;;;;;;;;;;;;;;;;;;;;
2024/04/20 04:20:15;;;;;;;;;;;;;;;;;;;;;
2024/04/20 04:24:10;;;;;;;7.40;5.80;;;;;;;7.51;75.98;99140.56;128914;1270;114939;-63
2024/04/20 04:28:02;;;;;;;;;;;;;;;;;;;;;
2024/04/20 04:31:45;;;;;;;5.80;5.20;;;;;;;7.54;76.12;99150.30;127358;1286;114948;-63
2024/04/20 04:35:46;;;;;;;5.30;4.60;;;;;;;7.59;76.21;99149.89;127319;1286;114994;-63
2024/04/20 04:39:23;;;;;;;4.90;4.40;;;;;;;7.68;76.78;99155.94;127353;1304;114734;-67
2024/04/20 04:43:25;;;;;;;6.60;5.10;;;;;;;7.78;76.55;99161.63;127267;1302;115063;-64
2024/04/20 04:47:11;;;;;;;5.00;4.00;;;;;;;7.89;76.55;99167.38;126493;1293;129831;-66
2024/04/20 04:51:13;;;;;;;5.10;3.90;;;;;;;7.98;76.68;99169.88;126607;1293;114931;-65
2024/04/20 04:55:05;;;;;;;;;;;;;;;;;;;;;
2024/04/20 05:03:14;;;;;;;4.70;3.80;;;;;;;8.23;76.40;99185.39;126306;1295;636006;-61
2024/04/20 05:06:52;;;;;;;5.50;4.30;;;;;;;8.35;76.62;99192.70;127697;1284;129255;-62
2024/04/20 05:10:45;;;;;;;4.30;3.80;;;;;;;8.53;76.47;99194.34;127621;1292;115662;-63
2024/04/20 05:14:20;;;;;;;;;;;;;;;;;;;;;
2024/04/20 05:18:11;;;;;;;4.20;3.50;;;;;;;9.03;76.39;99201.86;123973;1281;114904;-64
2024/04/20 05:21:56;;;;;;;;;;;;;;;;;;;;;
2024/04/20 05:25:38;;;;;;;;;;;;;;;;;;;;;
2024/04/20 05:28:57;;;;;;;4.10;1.90;;;;;;;9.82;75.44;99210.34;126783;1292;128667;-63
2024/04/20 05:32:25;;;;;;;3.00;1.90;;;;;;;10.06;75.28;99219.36;126879;1303;114916;-62
2024/04/20 05:36:15;;;;;;;;;;;;;;;;;;;;;
2024/04/20 05:39:38;;;;;;;2.20;1.20;;;;;;;10.51;74.46;99218.27;125928;1300;117085;-63
2024/04/20 05:43:29;;;;;;;1.90;1.30;;;;;;;10.69;74.31;99225.56;126228;1300;116708;-69
2024/04/20 05:47:23;;;;;;;2.10;1.10;;;;;;;10.81;73.90;99223.86;126816;1308;129002;-61
2024/04/20 05:51:17;;;;;;;2.00;1.50;;;;;;;10.89;73.49;99231.36;126271;1296;114949;-64
2024/04/20 05:55:17;;;;;;;;;;;;;;;;;;;;;
2024/04/20 05:59:19;;;;;;;2.20;1.60;;;;;;;10.78;72.31;99244.08;125849;1293;114894;-64
2024/04/20 06:02:54;;;;;;;2.60;1.10;;;;;;;10.63;72.13;99246.86;125104;1324;114874;-65
2024/04/20 06:06:48;;;;;;;2.50;1.40;;;;;;;10.51;72.12;99253.00;124821;1326;129518;-62
2024/04/20 06:10:14;;;;;;;3.10;1.80;;;;;;;10.42;72.75;99255.53;124508;1327;115175;-61
2024/04/20 06:14:00;;;;;;;3.20;1.70;;;;;;;10.38;72.25;99261.02;124899;1305;114981;-62
2024/04/20 06:17:55;;;;;;;3.10;2.00;;;;;;;10.28;72.28;99262.90;125074;1308;114950;-64
2024/04/20 06:21:37;;;;;;;4.40;2.80;;;;;;;10.20;72.56;99270.17;125347;1323;114874;-64
2024/04/20 06:25:10;;;;;;;3.90;2.70;;;;;;;10.13;72.34;99271.16;125020;1323;129032;-63
2024/04/20 06:29:08;;;;;;;3.00;1.90;;;;;;;10.05;72.61;99282.36;125461;1296;115113;-63
2024/04/20 06:32:52;;;;;;;;;;;;;;;;;;;;;
2024/04/20 06:36:45;;;;;;;;;;;;;;;;;;;;;
2024/04/20 06:40:22;;;;;;;;;;;;;;;;;;;;;
2024/04/20 06:43:59;;;;;;;;;;;;;;;;;;;;;
2024/04/20 06:47:51;;;;;;;2.90;2.50;;;;;;;9.82;72.39;99303.95;126453;1295;115068;-65
2024/04/20 06:51:45;;;;;;;;;;;;;;;;;;;;;
2024/04/20 06:55:36;;;;;;;2.20;2.00;;;;;;;9.75;72.43;99315.45;125268;1321;115261;-66
2024/04/20 06:59:25;;;;;;;3.40;3.00;;;;;;;9.83;73.03;99319.44;124875;1307;114929;-67
2024/04/20 07:03:11;;;;;;;;;;;;;;;;;;;;;
2024/04/20 07:07:13;;;;;;;3.10;2.30;;;;;;;10.23;73.42;99323.34;124047;1328;115347;-63
2024/04/20 07:11:06;;;;;;;3.30;2.90;;;;;;;10.49;73.24;99323.52;124540;1310;115156;-66
2024/04/20 07:14:29;;;;;;;2.70;1.80;;;;;;;10.66;72.74;99327.39;125189;1320;114924;-62
2024/04/20 07:18:04;;;;;;;;;;;;;;;;;;;;;
2024/04/20 07:21:42;;;;;;;2.40;1.60;;;;;;;10.87;72.08;99337.63;125727;1301;129835;-64
2024/04/20 07:25:46;;;;;;;3.60;1.80;;;;;;;10.84;72.03;99341.95;126021;1298;114927;-64
2024/04/20 07:29:40;;;;;;;2.80;2.50;;;;;;;10.82;71.42;99348.84;125713;1298;114882;-70
2024/04/20 07:33:12;;;;;;;2.60;2.20;;;;;;;10.84;71.54;99355.49;125847;1298;114901;-63
2024/04/20 07:36:47;;;;;;;2.60;2.10;;;;;;;10.91;71.31;99356.28;126258;1292;114895;-62
2024/04/20 07:40:10;;;;;;;4.50;2.30;;;;;;;11.02;71.38;99360.75;126213;1295;128679;-62
2024/04/20 07:44:06;;;;;;;2.40;1.90;;;;;;;11.23;70.96;99361.84;126964;1287;114916;-61
2024/04/20 07:47:49;;;;;;;3.20;2.10;;;;;;;11.50;71.51;99367.36;126482;1289;115317;-63
2024/04/20 07:51:45;;;;;;;;;;;;;;;;;;;;;
2024/04/20 07:55:17;;;;;;;1.40;1.30;;;;;;;11.90;70.14;99379.15;127457;1284;115377;-60
2024/04/20 07:59:13;;;;;;;2.80;1.90;;;;;;;11.88;69.94;99379.83;127278;1286;128875;-59
2024/04/20 08:02:43;;;;;;;;;;;;;;;;;;;;;
2024/04/20 08:06:28;;;;;;;;;;;;;;;;;;;;;
2024/04/20 08:10:14;;;;;;;2.20;1.50;;;;;;;11.42;69.34;99393.52;126969;1280;114945;-62
2024/04/20 08:13:59;;;;;;;;;;;;;;;;;;;;;
2024/04/20 08:18:08;;;;;;;;;;;;;;;;;;;;;
2024/04/20 08:21:52;;;;;;;1.40;1.20;;;;;;;11.63;69.89;99410.81;127420;1300;114833;-61
2024/04/20 08:26:00;;;;;;;;;;;;;;;;;;;;;
2024/04/20 08:30:03;;;;;;;2.20;1.20;;;;;;;11.84;69.33;99424.25;127153;1285;115205;-62
2024/04/20 08:33:58;;;;;;;1.50;1.00;;;;;;;11.71;69.03;99430.85;126613;1291;114839;-65
2024/04/20 08:37:47;;;;;;;2.00;1.00;;;;;;;11.67;69.67;99433.80;126505;1306;130055;-62
2024/04/20 08:41:36;;;;;;;2.00;0.90;;;;;;;11.79;70.40;99438.35;126744;1302;114895;-60
2024/04/20 08:45:19;;;;;;;2.20;1.10;;;;;;;11.93;69.83;99443.48;126305;1311;115099;-61
2024/04/20 08:53:15;;;;;;;;;;;;;;;;;;;;;
2024/04/20 08:57:07;;;;;;;;;;;;;;;;;;;;;
2024/04/20 09:05:05;;;;;;;;;;;;;;;;;;;;;
2024/04/20 09:09:01;;;;;;;1.30;0.90;;;;;;;12.07;70.14;99475.31;128933;1271;128599;-61
2024/04/20 09:13:02;;;;;;;1.60;0.50;;;;;;;12.22;69.74;99477.37;127672;1291;114919;-61
2024/04/20 09:17:04;;;;;;;3.80;1.10;;;;;;;12.30;69.48;99484.10;127379;1283;114820;-62
2024/04/20 09:21:10;;;;;;;2.20;1.40;;;;;;;12.41;69.37;99488.76;122410;1303;115023;-62
2024/04/20 09:28:51;;;;;;;;;;;;;;;;;;;;;
2024/04/20 09:32:48;;;;;;;2.00;1.60;;;;;;;12.52;69.71;99505.68;123903;1329;129841;-61
2024/04/20 09:36:22;;;;;;;2.30;1.30;;;;;;;12.44;68.57;99507.86;124024;1315;114863;-61
2024/04/20 09:40:16;;;;;;;;;;;;;;;;;;;;;
2024/04/20 09:43:56;;;;;;;2.70;1.80;;;;;;;12.24;69.02;99518.56;123842;1319;114974;-59
2024/04/20 09:47:24;;;;;;;;;;;;;;;;;;;;;
2024/04/20 09:51:09;;;;;;;;;;;;;;;;;;;;;
2024/04/20 09:55:03;;;;;;;;;;;;;;;;;;;;;
2024/04/20 09:59:07;;;;;;;;;;;;;;;;;;;;;
2024/04/20 10:03:10;;;;;;;1.70;1.20;;;;;;;11.37;68.96;99548.67;128335;1275;128140;-63
2024/04/20 10:07:12;;;;;;;2.10;1.40;;;;;;;11.26;69.62;99557.09;128472;1287;114954;-61
2024/04/20 10:11:06;;;;;;;2.70;1.50;;;;;;;11.07;69.60;99565.05;124813;1284;3137615;-63
2024/04/20 10:15:17;;;;;;;2.40;1.50;;;;;;;10.92;69.70;99568.67;126050;1308;114806;-61
2024/04/20 10:19:10;;;;;;;;;;;;;;;;;;;;;
2024/04/20 10:23:05;;;;;;;;;;;;;;;;;;;;;
2024/04/20 10:27:12;;;;;;;3.80;2.00;;;;;;;10.94;70.61;99575.84;126373;1299;635451;-64
2024/04/20 10:31:38;;;;;;;2.00;1.30;;;;;;;11.02;70.28;99579.29;128384;1276;128792;-62
2024/04/20 10:35:24;;;;;;;2.60;1.70;;;;;;;11.11;70.37;99584.96;127991;1295;114966;-63
2024/04/20 10:39:30;;;;;;;;;;;;;;;;;;;;;
2024/04/20 10:43:32;;;;;;;2.40;2.10;;;;;;;11.12;69.83;99593.84;125612;1315;114866;-63
2024/04/20 10:47:34;;;;;;;2.70;1.80;;;;;;;11.16;70.27;99595.70;124874;1327;114986;-65
2024/04/20 10:51:20;;;;;;;;;;;;;;;;;;;;;
2024/04/20 10:55:02;;;;;;;3.60;2.90;;;;;;;11.28;69.68;99610.87;124832;1328;115029;-66
2024/04/20 10:58:47;;;;;;;4.40;2.90;;;;;;;11.33;69.94;99616.50;124926;1311;115002;-63
2024/04/20 11:02:31;;;;;;;;;;;;;;;;;;;;;
2024/04/20 11:06:26;;;;;;;4.80;3.70;;;;;;;11.32;70.16;99628.88;124370;1311;114981;-65
2024/04/20 11:10:06;;;;;;;;;;;;;;;;;;;;;
2024/04/20 11:13:53;;;;;;;;;;;;;;;;;;;;;
2024/04/20 11:17:39;;;;;;;6.70;3.30;;;;;;;10.87;70.61;99655.95;124934;1308;114953;-64
2024/04/20 11:21:14;;;;;;;;;;;;;;;;;;;;;
2024/04/20 11:24:37;;;;;;;;;;;;;;;;;;;;;
2024/04/20 11:27:50;;;;;;;6.70;3.20;;;;;;;9.97;70.71;99690.31;125955;1295;129866;-61
2024/04/20 11:31:43;;;;;;;4.70;3.70;;;;;;;9.71;71.30;99696.73;127248;1302;114869;-61
2024/04/20 11:35:39;;;;;;;;;;;;;;;;;;;;;
2024/04/20 11:39:29;;;;;;;12.70;3.30;;;;;;;9.19;72.58;99720.40;125958;1313;115198;-60
2024/04/20 11:43:06;;;;;;;6.90;3.00;;;;;;;8.83;72.41;99732.28;126019;1308;114891;-60
2024/04/20 11:46:52;;;;;;;;;;;;;;;;;;;;;
2024/04/20 11:50:45;;;;;;;3.50;2.80;;;;;;;8.21;73.60;99755.21;125725;1293;114995;-61
2024/04/20 11:54:45;;;;;;;;;;;;;;;;;;;;;
2024/04/20 11:58:40;;;;;;;5.90;2.20;;;;;;;7.68;74.11;99769.80;126072;1314;114973;-59
2024/04/20 12:02:30;;;;;;;2.40;1.60;;;;;;;7.39;74.62;99782.31;125588;1305;114987;-61
2024/04/20 12:05:58;;;;;;;;;;;;;;;;;;;;;
2024/04/20 12:09:53;;;;;;;2.80;2.10;;;;;;;6.87;75.65;99797.17;125350;1306;115001;-61
2024/04/20 12:13:35;;;;;;;;;;;;;;;;;;;;;
2024/04/20 12:17:32;;;;;;;;;;;;;;;;;;;;;
2024/04/20 12:25:17;;;;;;;11.30;3.70;;;;;;;6.72;77.10;99823.89;128582;1283;115120;-60
2024/04/20 12:29:04;;;;;;;;;;;;;;;;;;;;;
2024/04/20 12:32:59;;;;;;;11.00;3.70;;;;;;;6.57;77.83;99838.52;124205;1279;114912;-60
2024/04/20 12:36:46;;;;;;;;;;;;;;;;;;;;;
2024/04/20 12:40:24;;;;;;;5.20;2.50;;;;;;;6.60;78.38;99851.16;128076;1297;115220;-59
2024/04/20 12:44:27;;;;;;;;;;;;;;;;;;;;;
2024/04/20 12:48:24;;;;;;;5.90;3.70;;;;;;;6.50;78.53;99870.19;127380;1292;114930;-60
2024/04/20 12:52:19;;;;;;;4.20;3.80;;;;;;;6.58;79.03;99878.73;127780;1292;114730;-60
2024/04/20 12:56:10;;;;;;;;;;;;;;;;;;;;;
2024/04/20 13:00:12;;;;;;;4.10;3.30;;;;;;;6.59;78.59;99895.73;126007;1309;114958;-61
2024/04/20 13:04:06;;;;;;;;;;;;;;;;;;;;;
2024/04/20 13:07:39;;;;;;;;;;;;;;;;;;;;;
2024/04/20 13:11:33;;;;;;;;;;;;;;;;;;;;;
2024/04/20 13:15:29;;;;;;;;;;;;;;;;;;;;;
2024/04/20 13:19:22;;;;;;;5.90;3.80;;;;;;;6.68;78.37;99932.10;125243;1301;115168;-61
2024/04/20 13:22:57;;;;;;;;;;;;;;;;;;;;;
2024/04/20 13:26:49;;;;;;;;;;;;;;;;;;;;;
2024/04/20 13:30:32;;;;;;;;;;;;;;;;;;;;;
2024/04/20 13:33:34;;;;;;;3.30;2.00;;;;;;;6.43;78.03;99960.92;125764;1311;114792;-61
2024/04/20 13:37:24;;;;;;;4.30;3.50;;;;;;;6.39;77.80;99974.19;126379;1311;116494;-60
2024/04/20 13:41:19;;;;;;;3.80;3.10;;;;;;;6.29;77.46;99975.63;125888;1316;129506;-60
2024/04/20 13:44:33;;;;;;;4.90;3.30;;;;;;;6.25;77.82;99987.13;125761;1316;114753;-59
2024/04/20 13:48:13;;;;;;;;;;;;;;;;;;;;;
2024/04/20 13:52:14;;;;;;;;;;;;;;;;;;;;;
2024/04/20 13:56:17;;;;;;;5.00;4.00;;;;;;;6.31;77.97;100006.58;125680;1306;114795;-60
2024/04/20 14:00:16;;;;;;;;;;;;;;;;;;;;;
2024/04/20 14:03:59;;;;;;;;;;;;;;;;;;;;;
2024/04/20 14:07:59;;;;;;;;;;;;;;;;;;;;;
2024/04/20 14:12:11;;;;;;;;;;;;;;;;;;;;;
2024/04/20 14:16:15;;;;;;;5.60;4.00;;;;;;;5.96;77.45;100050.35;128172;1279;127546;-60
2024/04/20 14:20:14;;;;;;;;;;;;;;;;;;;;;
2024/04/20 14:24:11;;;;;;;3.80;2.60;;;;;;;6.01;77.49;100065.30;122234;1298;5406045;-61
2024/04/20 14:28:01;;;;;;;;;;;;;;;;;;;;;
2024/04/20 14:31:32;;;;;;;;;;;;;;;;;;;;;
2024/04/20 14:35:07;;;;;;;2.80;2.10;;;;;;;6.15;77.42;100081.10;124183;1331;114935;-60
2024/04/20 14:43:03;;;;;;;4.00;3.10;;;;;;;6.05;77.00;100091.73;125962;1297;636601;-62
2024/04/20 14:46:45;;;;;;;;;;;;;;;;;;;;;
2024/04/20 14:50:16;;;;;;;6.50;3.60;;;;;;;5.87;76.84;100112.33;128214;1278;115027;-62
2024/04/20 14:54:11;;;;;;;;;;;;;;;;;;;;;
2024/04/20 14:58:09;;;;;;;4.10;2.20;;;;;;;5.65;76.31;100127.41;123875;1299;5413766;-60
2024/04/20 15:02:15;;;;;;;5.80;3.80;;;;;;;5.60;76.56;100129.17;126998;1284;115375;-60
2024/04/20 15:05:51;;;;;;;;;;;;;;;;;;;;;
2024/04/20 15:09:34;;;;;;;;;;;;;;;;;;;;;
2024/04/20 15:13:42;;;;;;;6.20;3.50;;;;;;;5.47;76.52;100141.09;127017;1289;114932;-61
2024/04/20 15:17:42;;;;;;;;;;;;;;;;;;;;;
2024/04/20 15:21:37;;;;;;;;;;;;;;;;;;;;;
2024/04/20 15:29:53;;;;;;;8.50;4.80;;;;;;;5.45;77.41;100165.40;126284;1298;635377;-61
2024/04/20 15:33:59;;;;;;;3.10;2.50;;;;;;;5.51;77.28;100168.77;128529;1272;128221;-63
2024/04/20 15:38:01;;;;;;;4.10;3.20;;;;;;;5.52;77.08;100173.17;127538;1290;114906;-61
2024/04/20 15:42:05;;;;;;;5.20;3.00;;;;;;;5.54;76.98;100181.41;122232;1312;5572231;-62
2024/04/20 15:45:55;;;;;;;;;;;;;;;;;;;;;
2024/04/20 15:49:37;;;;;;;;;;;;;;;;;;;;;
2024/04/20 15:53:32;;;;;;;;;;;;;;;;;;;;;
2024/04/20 15:57:53;;;;;;;6.60;4.20;;;;;;;5.39;76.44;100204.73;126182;1291;637058;-59
2024/04/20 16:01:55;;;;;;;6.80;3.90;;;;;;;5.28;76.39;100211.77;126684;1286;128902;-61
2024/04/20 16:05:52;;;;;;;5.70;3.50;;;;;;;5.21;76.39;100218.35;125475;1311;115192;-62
2024/04/20 16:09:33;;;;;;;5.90;3.70;;;;;;;5.14;76.36;100221.02;120948;1320;5586255;-61
2024/04/20 16:12:34;;;;;;;7.10;4.30;;;;;;;5.09;76.28;100229.13;124318;1316;114975;-63
2024/04/20 16:16:26;;;;;;;6.80;4.00;;;;;;;5.10;76.32;100233.02;124160;1330;115481;-62
2024/04/20 16:20:20;;;;;;;;;;;;;;;;;;;;;
2024/04/20 16:24:15;;;;;;;4.40;3.00;;;;;;;5.03;76.15;100254.79;124070;1314;129731;-60
2024/04/20 16:28:10;;;;;;;;;;;;;;;;;;;;;
2024/04/20 16:31:59;;;;;;;;;;;;;;;;;;;;;
2024/04/20 16:36:19;;;;;;;6.60;4.20;;;;;;;5.03;76.45;100270.72;126093;1294;635449;-61
2024/04/20 16:40:11;;;;;;;7.80;5.00;;;;;;;5.04;76.76;100276.54;127830;1278;128643;-61
2024/04/20 16:44:14;;;;;;;6.90;4.50;;;;;;;5.03;76.57;100284.36;127609;1281;115096;-60
2024/04/20 16:47:54;;;;;;;5.50;3.70;;;;;;;5.00;76.49;100288.84;122358;1292;5618691;-60
2024/04/20 16:52:12;;;;;;;5.70;3.80;;;;;;;4.98;76.58;100293.84;125938;1308;114940;-61
2024/04/20 16:56:11;;;;;;;;;;;;;;;;;;;;;
2024/04/20 17:00:04;;;;;;;6.90;4.10;;;;;;;4.94;76.83;100303.34;124999;1318;115065;-61
2024/04/20 17:04:04;;;;;;;;;;;;;;;;;;;;;
2024/04/20 17:08:19;;;;;;;;;;;;;;;;;;;;;
2024/04/20 17:12:13;;;;;;;;;;;;;;;;;;;;;
2024/04/20 17:16:15;;;;;;;;;;;;;;;;;;;;;
2024/04/20 17:20:19;;;;;;;7.50;5.00;;;;;;;4.88;76.70;100324.22;123894;1286;5416043;-62
2024/04/20 17:24:03;;;;;;;8.80;4.80;;;;;;;4.88;76.82;100326.67;125551;1303;115038;-61
2024/04/20 17:28:06;;;;;;;6.00;4.30;;;;;;;4.84;76.68;100334.03;124940;1318;114921;-60
2024/04/20 17:36:13;;;;;;;8.20;4.50;;;;;;;4.81;76.67;100350.21;126057;1294;637054;-61
2024/04/20 17:39:56;;;;;;;6.40;4.90;;;;;;;4.77;76.38;100357.94;128261;1277;128903;-61
2024/04/20 17:43:44;;;;;;;;;;;;;;;;;;;;;
2024/04/20 17:47:18;;;;;;;7.10;4.80;;;;;;;4.69;76.33;100366.95;126939;1306;114875;-61
2024/04/20 17:51:04;;;;;;;;;;;;;;;;;;;;;
2024/04/20 17:54:57;;;;;;;;;;;;;;;;;;;;;
2024/04/20 17:58:17;;;;;;;8.80;5.30;;;;;;;4.67;76.41;100373.70;126415;1292;114802;-60
2024/04/20 18:01:19;;;;;;;9.40;5.10;;;;;;;4.65;76.40;100379.96;126411;1310;130376;-61
2024/04/20 18:04:56;;;;;;;7.10;4.50;;;;;;;4.63;76.48;100382.32;126526;1293;114977;-61
2024/04/20 18:08:56;;;;;;;;;;;;;;;;;;;;;
2024/04/20 18:12:06;;;;;;;9.30;5.10;;;;;;;4.61;76.70;100385.55;125488;1309;116547;-62
2024/04/20 18:15:40;;;;;;;;;;;;;;;;;;;;;
2024/04/20 18:19:43;;;;;;;10.00;5.60;;;;;;;4.59;76.94;100389.48;125560;1304;129743;-61
2024/04/20 18:23:45;;;;;;;10.20;5.60;;;;;;;4.60;76.96;100395.84;126205;1291;114933;-62
2024/04/20 18:27:30;;;;;;;10.40;5.90;;;;;;;4.58;76.79;100399.94;126148;1299;115128;-63
2024/04/20 18:31:11;;;;;;;;;;;;;;;4.58;77.19;100405.96;126286;1309;114977;-59
2024/04/20 18:35:03;;;;;;;6.60;4.70;;;;;;;4.57;77.03;100407.56;126007;1316;114773;-62
2024/04/20 18:39:01;;;;;;;6.90;4.50;;;;;;;4.59;77.12;100414.80;124851;1328;129949;-61
2024/04/20 18:46:32;;;;;;;8.00;5.00;;;;;;;4.58;76.73;100425.58;126417;1295;636304;-60
2024/04/20 18:49:59;;;;;;;9.40;5.20;;;;;;;4.55;76.95;100427.07;128927;1287;128003;-60
2024/04/20 18:53:59;;;;;;;8.20;4.50;;;;;;;4.59;76.87;100435.30;128676;1286;115008;-60
2024/04/20 18:58:02;;;;;;;9.40;5.80;;;;;;;4.60;76.89;100439.53;128438;1277;115665;-61
2024/04/20 19:01:48;;;;;;;8.00;4.50;;;;;;;4.61;76.91;100440.76;123448;1288;5760724;-62
2024/04/20 19:05:31;;;;;;;;;;;;;;;;;;;;;
2024/04/20 19:09:20;;;;;;;;;;;;;;;;;;;;;
2024/04/20 19:13:21;;;;;;;8.60;5.00;;;;;;;4.59;76.83;100456.71;125818;1316;129538;-60
2024/04/20 19:17:07;;;;;;;14.70;6.50;;;;;;;4.59;76.75;100462.89;125541;1299;115281;-61
2024/04/20 19:20:34;;;;;;;9.40;6.30;;;;;;;4.60;77.01;100464.30;125603;1314;114792;-62
2024/04/20 19:24:10;;;;;;;11.60;6.50;;;;;;;4.61;77.11;100469.40;125562;1302;114981;-61
2024/04/20 19:27:45;;;;;;;;;;;;;;;;;;;;;
2024/04/20 19:31:35;;;;;;;;;;;;;;;;;;;;;
2024/04/20 19:35:31;;;;;;;10.50;7.00;;;;;;;4.66;77.37;100466.10;125514;1321;114987;-61
2024/04/20 19:39:13;;;;;;;;;;;;;;;;;;;;;
2024/04/20 19:42:59;;;;;;;15.70;8.70;;;;;;;4.67;77.67;100465.02;126014;1316;115068;-61
2024/04/20 19:46:46;;;;;;;;;;;;;;;;;;;;;
2024/04/20 19:50:46;;;;;;;14.40;8.50;;;;;;;4.71;77.94;100459.96;126163;1312;128772;-61
2024/04/20 19:54:24;;;;;;;;;;;;;;;;;;;;;
2024/04/20 19:58:14;;;;;;;;;;;;;;;;;;;;;
2024/04/20 20:02:02;;;;;;;12.30;6.70;;;;;;;4.72;78.36;100470.02;125582;1320;114957;-61
2024/04/20 20:06:06;;;;;;;15.60;8.40;;;;;;;4.73;78.16;100472.66;125586;1320;114973;-61
2024/04/20 20:09:39;;;;;;;14.90;8.40;;;;;;;4.72;78.31;100475.16;124963;1304;129808;-61
2024/04/20 20:13:41;;;;;;;12.80;8.50;;;;;;;4.73;78.52;100473.20;125481;1298;114955;-61
2024/04/20 20:17:41;;;;;;;13.40;8.20;;;;;;;4.74;78.47;100475.48;124238;1331;114970;-61
2024/04/20 20:21:43;;;;;;;13.80;9.00;;;;;;;4.72;78.47;100476.17;124229;1314;115019;-61
2024/04/20 20:25:37;;;;;;;14.90;8.80;;;;;;;4.71;78.54;100475.02;125207;1323;114992;-62
2024/04/20 20:29:24;;;;;;;;;;;;;;;;;;;;;
2024/04/20 20:32:50;;;;;;;19.20;9.20;;;;;;;4.71;78.76;100478.73;124223;1324;114999;-61
2024/04/20 20:36:48;;;;;;;14.60;9.40;;;;;;;4.71;78.78;100485.27;124425;1329;115085;-61
2024/04/20 20:40:31;;;;;;;;;;;;;;;;;;;;;
2024/04/20 20:44:31;;;;;;;18.00;9.90;;;;;;;4.69;78.96;100495.76;124846;1327;115068;-61
2024/04/20 20:48:15;;;;;;;;;;;;;;;;;;;;;
2024/04/20 20:52:06;;;;;;;;;;;;;;;;;;;;;
2024/04/20 20:56:01;;;;;;;;;;;;;;;;;;;;;
2024/04/20 20:59:27;;;;;;;16.60;9.60;;;;;;;4.60;78.83;100501.44;125120;1320;114979;-61
2024/04/20 21:07:25;;;;;;;;;;;;;;;;;;;;;
2024/04/20 21:11:19;;;;;;;17.80;10.20;;;;;;;4.55;79.04;100499.05;128807;1270;128882;-60
2024/04/20 21:15:04;;;;;;;16.70;11.40;;;;;;;4.54;79.01;100505.99;128375;1279;114804;-61
2024/04/20 21:18:49;;;;;;;;;;;;;;;;;;;;;
2024/04/20 21:22:36;;;;;;;;;;;;;;;;;;;;;
2024/04/20 21:26:26;;;;;;;15.60;9.60;;;;;;;4.50;79.09;100512.96;127672;1287;114952;-61
2024/04/20 21:29:47;;;;;;;15.10;8.80;;;;;;;4.48;79.28;100513.37;127495;1303;114958;-61
2024/04/20 21:33:49;;;;;;;14.70;8.60;;;;;;;4.47;79.33;100516.03;127155;1283;128914;-61
2024/04/20 21:37:34;;;;;;;14.10;8.20;;;;;;;4.46;79.11;100514.29;126882;1308;114800;-61
2024/04/20 21:41:05;;;;;;;12.70;6.80;;;;;;;4.45;79.07;100514.31;126889;1290;114872;-61
2024/04/20 21:45:22;;;;;;;11.40;6.70;;;;;;;4.41;78.54;100511.20;126311;1311;115004;-61
2024/04/20 21:48:52;;;;;;;9.30;5.60;;;;;;;4.36;78.28;100513.43;126063;1299;114920;-62
2024/04/20 21:52:39;;;;;;;11.50;6.60;;;;;;;4.33;78.25;100511.54;125579;1314;129808;-61
2024/04/20 21:56:06;;;;;;;11.20;6.40;;;;;;;4.29;77.98;100514.64;126043;1316;114987;-62
2024/04/20 22:00:12;;;;;;;14.20;5.90;;;;;;;4.27;78.16;100514.33;126269;1296;115872;-62
2024/04/20 22:03:39;;;;;;;9.60;6.40;;;;;;;4.25;77.88;100511.69;125954;1317;114945;-62
2024/04/20 22:07:25;;;;;;;10.60;6.60;;;;;;;4.23;77.81;100512.43;126117;1304;114945;-61
2024/04/20 22:10:50;;;;;;;;;;;;;;;;;;;;;
2024/04/20 22:14:25;;;;;;;11.60;7.60;;;;;;;4.19;77.96;100516.23;126624;1295;114795;-61
2024/04/20 22:18:07;;;;;;;;;;;;;;;;;;;;;
2024/04/20 22:21:42;;;;;;;11.00;6.70;;;;;;;4.14;77.69;100519.35;126329;1295;114933;-62
2024/04/20 22:25:47;;;;;;;10.40;7.20;;;;;;;4.06;77.42;100525.50;127792;1277;114888;-61
2024/04/20 22:29:18;;;;;;;12.60;5.90;;;;;;;3.99;77.38;100525.28;127450;1286;129763;-62
2024/04/20 22:33:06;;;;;;;10.40;5.80;;;;;;;3.92;77.25;100521.54;126924;1289;116632;-61
2024/04/20 22:36:47;;;;;;;11.70;6.70;;;;;;;3.84;77.07;100523.09;126968;1303;114947;-61